sensor_id;sensor_type;location;lat;lon;timestamp;temperature;humidity
33955;DHT22;20233;50.804;7.126;2023-01-28T00:01:11;3.70;99.90
33955;DHT22;20233;50.804;7.126;2023-01-28T00:03:38;3.70;99.90
33955;DHT22;20233;50.804;7.126;2023-01-28T00:06:08;3.70;99.90
33955;DHT22;20233;50.804;7.126;2023-01-28T00:08:34;3.60;99.90
33955;DHT22;20233;50.804;7.126;2023-01-28T00:11:04;3.70;99.90
33955;DHT22;20233;50.804;7.126;2023-01-28T00:13:30;3.60;99.90
33955;DHT22;20233;50.804;7.126;2023-01-28T00:15:58;3.70;99.90
33955;DHT22;20233;50.804;7.126;2023-01-28T00:18:26;3.60;99.90
33955;DHT22;20233;50.804;7.126;2023-01-28T00:20:58;3.60;99.90
33955;DHT22;20233;50.804;7.126;2023-01-28T00:23:26;3.70;99.90
33955;DHT22;20233;50.804;7.126;2023-01-28T00:25:53;3.70;99.90
33955;DHT22;20233;50.804;7.126;2023-01-28T00:28:20;3.60;99.90
33955;DHT22;20233;50.804;7.126;2023-01-28T00:30:47;3.70;99.90
33955;DHT22;20233;50.804;7.126;2023-01-28T00:33:14;3.70;99.90
33955;DHT22;20233;50.804;7.126;2023-01-28T00:35:40;3.70;99.90
33955;DHT22;20233;50.804;7.126;2023-01-28T00:38:06;3.70;99.90
33955;DHT22;20233;50.804;7.126;2023-01-28T00:40:31;3.70;99.90
33955;DHT22;20233;50.804;7.126;2023-01-28T00:42:58;3.80;99.90
33955;DHT22;20233;50.804;7.126;2023-01-28T00:45:24;3.80;99.90
33955;DHT22;20233;50.804;7.126;2023-01-28T00:47:50;3.70;99.90
33955;DHT22;20233;50.804;7.126;2023-01-28T00:50:17;3.70;99.90
33955;DHT22;20233;50.804;7.126;2023-01-28T00:52:44;3.70;99.90
33955;DHT22;20233;50.804;7.126;2023-01-28T00:55:11;3.70;99.90
33955;DHT22;20233;50.804;7.126;2023-01-28T00:57:37;3.60;99.90
33955;DHT22;20233;50.804;7.126;2023-01-28T01:00:04;3.50;99.90
33955;DHT22;20233;50.804;7.126;2023-01-28T01:02:31;3.50;99.90
33955;DHT22;20233;50.804;7.126;2023-01-28T01:04:57;3.50;99.90
33955;DHT22;20233;50.804;7.126;2023-01-28T01:07:27;3.50;99.90
33955;DHT22;20233;50.804;7.126;2023-01-28T01:10:00;3.50;99.90
33955;DHT22;20233;50.804;7.126;2023-01-28T01:12:26;3.60;99.90
33955;DHT22;20233;50.804;7.126;2023-01-28T01:14:52;3.40;99.90
33955;DHT22;20233;50.804;7.126;2023-01-28T01:17:18;3.40;99.90
33955;DHT22;20233;50.804;7.126;2023-01-28T01:19:45;3.30;99.90
33955;DHT22;20233;50.804;7.126;2023-01-28T01:22:11;3.30;99.90
33955;DHT22;20233;50.804;7.126;2023-01-28T01:24:36;3.30;99.90
33955;DHT22;20233;50.804;7.126;2023-01-28T01:27:02;3.20;99.90
33955;DHT22;20233;50.804;7.126;2023-01-28T01:29:31;3.20;99.90
33955;DHT22;20233;50.804;7.126;2023-01-28T01:31:58;3.10;99.90
33955;DHT22;20233;50.804;7.126;2023-01-28T01:34:43;3.10;99.90
33955;DHT22;20233;50.804;7.126;2023-01-28T01:37:09;2.90;99.90
33955;DHT22;20233;50.804;7.126;2023-01-28T01:39:35;2.90;99.90
33955;DHT22;20233;50.804;7.126;2023-01-28T01:42:01;2.80;99.90
33955;DHT22;20233;50.804;7.126;2023-01-28T01:47:13;2.60;99.90
33955;DHT22;20233;50.804;7.126;2023-01-28T01:49:41;2.60;99.90
33955;DHT22;20233;50.804;7.126;2023-01-28T01:52:10;2.60;99.90
33955;DHT22;20233;50.804;7.126;2023-01-28T01:54:39;2.60;99.90
33955;DHT22;20233;50.804;7.126;2023-01-28T01:57:09;2.50;99.90
33955;DHT22;20233;50.804;7.126;2023-01-28T01:59:37;2.40;99.90
33955;DHT22;20233;50.804;7.126;2023-01-28T02:02:07;2.30;99.90
33955;DHT22;20233;50.804;7.126;2023-01-28T02:04:39;2.30;99.90
33955;DHT22;20233;50.804;7.126;2023-01-28T02:07:08;2.20;99.90
33955;DHT22;20233;50.804;7.126;2023-01-28T02:09:35;2.10;99.90
33955;DHT22;20233;50.804;7.126;2023-01-28T02:12:09;2.00;99.90
33955;DHT22;20233;50.804;7.126;2023-01-28T02:14:43;2.00;99.90
33955;DHT22;20233;50.804;7.126;2023-01-28T02:17:10;2.00;99.90
33955;DHT22;20233;50.804;7.126;2023-01-28T02:20:07;2.10;99.90
33955;DHT22;20233;50.804;7.126;2023-01-28T02:31:33;1.80;99.90
33955;DHT22;20233;50.804;7.126;2023-01-28T02:39:10;1.80;99.90
33955;DHT22;20233;50.804;7.126;2023-01-28T02:41:48;1.90;99.90
33955;DHT22;20233;50.804;7.126;2023-01-28T02:44:15;1.90;99.90
33955;DHT22;20233;50.804;7.126;2023-01-28T02:46:41;1.80;99.90
33955;DHT22;20233;50.804;7.126;2023-01-28T02:49:44;1.70;99.90
33955;DHT22;20233;50.804;7.126;2023-01-28T02:52:41;1.60;99.90
33955;DHT22;20233;50.804;7.126;2023-01-28T02:58:19;1.80;99.90
33955;DHT22;20233;50.804;7.126;2023-01-28T03:06:07;1.70;99.90
33955;DHT22;20233;50.804;7.126;2023-01-28T03:08:42;1.80;99.90
33955;DHT22;20233;50.804;7.126;2023-01-28T03:11:32;1.60;99.90
33955;DHT22;20233;50.804;7.126;2023-01-28T03:14:18;1.60;99.90
33955;DHT22;20233;50.804;7.126;2023-01-28T03:17:04;1.60;99.90
33955;DHT22;20233;50.804;7.126;2023-01-28T03:19:52;1.60;99.90
33955;DHT22;20233;50.804;7.126;2023-01-28T03:22:39;1.70;99.90
33955;DHT22;20233;50.804;7.126;2023-01-28T03:25:25;1.50;99.90
33955;DHT22;20233;50.804;7.126;2023-01-28T03:28:16;1.60;99.90
33955;DHT22;20233;50.804;7.126;2023-01-28T03:31:06;1.50;99.90
33955;DHT22;20233;50.804;7.126;2023-01-28T03:33:52;1.40;99.90
33955;DHT22;20233;50.804;7.126;2023-01-28T03:36:38;1.30;99.90
33955;DHT22;20233;50.804;7.126;2023-01-28T03:39:21;1.30;99.90
33955;DHT22;20233;50.804;7.126;2023-01-28T03:41:59;1.20;99.90
33955;DHT22;20233;50.804;7.126;2023-01-28T03:44:27;1.20;99.90
33955;DHT22;20233;50.804;7.126;2023-01-28T03:47:11;1.10;99.90
33955;DHT22;20233;50.804;7.126;2023-01-28T03:49:42;1.10;99.90
33955;DHT22;20233;50.804;7.126;2023-01-28T03:52:11;1.00;99.90
33955;DHT22;20233;50.804;7.126;2023-01-28T03:54:37;1.00;99.90
33955;DHT22;20233;50.804;7.126;2023-01-28T03:57:03;1.00;99.90
33955;DHT22;20233;50.804;7.126;2023-01-28T03:59:34;1.00;99.90
33955;DHT22;20233;50.804;7.126;2023-01-28T04:02:00;1.00;99.90
33955;DHT22;20233;50.804;7.126;2023-01-28T04:04:28;1.00;99.90
33955;DHT22;20233;50.804;7.126;2023-01-28T04:06:57;1.00;99.90
33955;DHT22;20233;50.804;7.126;2023-01-28T04:09:23;1.00;99.90
33955;DHT22;20233;50.804;7.126;2023-01-28T04:11:50;1.00;99.90
33955;DHT22;20233;50.804;7.126;2023-01-28T04:14:19;1.00;99.90
33955;DHT22;20233;50.804;7.126;2023-01-28T04:16:45;0.90;99.90
33955;DHT22;20233;50.804;7.126;2023-01-28T04:19:12;0.90;99.90
33955;DHT22;20233;50.804;7.126;2023-01-28T04:21:38;0.80;99.90
33955;DHT22;20233;50.804;7.126;2023-01-28T04:24:04;0.80;99.90
33955;DHT22;20233;50.804;7.126;2023-01-28T04:26:30;0.80;99.90
33955;DHT22;20233;50.804;7.126;2023-01-28T04:28:56;0.80;99.90
33955;DHT22;20233;50.804;7.126;2023-01-28T04:31:22;0.70;99.90
33955;DHT22;20233;50.804;7.126;2023-01-28T04:33:49;0.70;99.90
33955;DHT22;20233;50.804;7.126;2023-01-28T04:36:15;0.70;99.90
33955;DHT22;20233;50.804;7.126;2023-01-28T04:38:41;0.70;99.90
33955;DHT22;20233;50.804;7.126;2023-01-28T04:41:07;0.70;99.90
33955;DHT22;20233;50.804;7.126;2023-01-28T04:43:33;0.70;99.90
33955;DHT22;20233;50.804;7.126;2023-01-28T04:45:58;0.60;99.90
33955;DHT22;20233;50.804;7.126;2023-01-28T04:48:24;0.60;99.90
33955;DHT22;20233;50.804;7.126;2023-01-28T04:50:50;0.60;99.90
33955;DHT22;20233;50.804;7.126;2023-01-28T04:53:16;0.50;99.90
33955;DHT22;20233;50.804;7.126;2023-01-28T04:55:44;0.60;99.90
33955;DHT22;20233;50.804;7.126;2023-01-28T04:58:09;0.60;99.90
33955;DHT22;20233;50.804;7.126;2023-01-28T05:00:35;0.60;99.90
33955;DHT22;20233;50.804;7.126;2023-01-28T05:03:01;0.50;99.90
33955;DHT22;20233;50.804;7.126;2023-01-28T05:05:27;0.50;99.90
33955;DHT22;20233;50.804;7.126;2023-01-28T05:07:55;0.60;99.90
33955;DHT22;20233;50.804;7.126;2023-01-28T05:10:22;0.60;99.90
33955;DHT22;20233;50.804;7.126;2023-01-28T05:12:48;0.60;99.90
33955;DHT22;20233;50.804;7.126;2023-01-28T05:15:16;0.60;99.90
33955;DHT22;20233;50.804;7.126;2023-01-28T05:17:42;0.50;99.90
33955;DHT22;20233;50.804;7.126;2023-01-28T05:20:10;0.50;99.90
33955;DHT22;20233;50.804;7.126;2023-01-28T05:22:37;0.50;99.90
33955;DHT22;20233;50.804;7.126;2023-01-28T05:25:03;0.50;99.90
33955;DHT22;20233;50.804;7.126;2023-01-28T05:27:30;0.50;99.90
33955;DHT22;20233;50.804;7.126;2023-01-28T05:29:57;0.50;99.90
33955;DHT22;20233;50.804;7.126;2023-01-28T05:32:24;0.60;99.90
33955;DHT22;20233;50.804;7.126;2023-01-28T05:34:50;0.60;99.90
33955;DHT22;20233;50.804;7.126;2023-01-28T05:37:16;0.60;99.90
33955;DHT22;20233;50.804;7.126;2023-01-28T05:39:42;0.70;99.90
33955;DHT22;20233;50.804;7.126;2023-01-28T05:42:08;0.70;99.90
33955;DHT22;20233;50.804;7.126;2023-01-28T05:44:34;0.70;99.90
33955;DHT22;20233;50.804;7.126;2023-01-28T05:47:00;0.80;99.90
33955;DHT22;20233;50.804;7.126;2023-01-28T05:49:26;0.80;99.90
33955;DHT22;20233;50.804;7.126;2023-01-28T05:51:52;0.90;99.90
33955;DHT22;20233;50.804;7.126;2023-01-28T05:54:18;0.90;99.90
33955;DHT22;20233;50.804;7.126;2023-01-28T05:56:44;0.90;99.90
33955;DHT22;20233;50.804;7.126;2023-01-28T05:59:12;1.00;99.90
33955;DHT22;20233;50.804;7.126;2023-01-28T06:01:38;0.90;99.90
33955;DHT22;20233;50.804;7.126;2023-01-28T06:04:04;0.90;99.90
33955;DHT22;20233;50.804;7.126;2023-01-28T06:06:30;1.00;99.90
33955;DHT22;20233;50.804;7.126;2023-01-28T06:08:56;1.00;99.90
33955;DHT22;20233;50.804;7.126;2023-01-28T06:11:21;1.00;99.90
33955;DHT22;20233;50.804;7.126;2023-01-28T06:13:47;1.00;99.90
33955;DHT22;20233;50.804;7.126;2023-01-28T06:16:13;1.00;99.90
33955;DHT22;20233;50.804;7.126;2023-01-28T06:18:39;1.00;99.90
33955;DHT22;20233;50.804;7.126;2023-01-28T06:21:09;1.10;99.90
33955;DHT22;20233;50.804;7.126;2023-01-28T06:23:34;1.10;99.90
33955;DHT22;20233;50.804;7.126;2023-01-28T06:26:00;1.10;99.90
33955;DHT22;20233;50.804;7.126;2023-01-28T06:28:26;1.20;99.90
33955;DHT22;20233;50.804;7.126;2023-01-28T06:30:53;1.10;99.90
33955;DHT22;20233;50.804;7.126;2023-01-28T06:33:20;1.20;99.90
33955;DHT22;20233;50.804;7.126;2023-01-28T06:35:46;1.20;99.90
33955;DHT22;20233;50.804;7.126;2023-01-28T06:38:12;1.30;99.90
33955;DHT22;20233;50.804;7.126;2023-01-28T06:40:39;1.30;99.90
33955;DHT22;20233;50.804;7.126;2023-01-28T06:43:05;1.40;99.90
33955;DHT22;20233;50.804;7.126;2023-01-28T06:45:32;1.40;99.90
33955;DHT22;20233;50.804;7.126;2023-01-28T06:47:58;1.50;99.90
33955;DHT22;20233;50.804;7.126;2023-01-28T06:50:24;1.50;99.90
33955;DHT22;20233;50.804;7.126;2023-01-28T06:52:51;1.50;99.90
33955;DHT22;20233;50.804;7.126;2023-01-28T06:55:17;1.50;99.90
33955;DHT22;20233;50.804;7.126;2023-01-28T06:57:43;1.60;99.90
33955;DHT22;20233;50.804;7.126;2023-01-28T07:00:11;1.60;99.90
33955;DHT22;20233;50.804;7.126;2023-01-28T07:02:39;1.60;99.90
33955;DHT22;20233;50.804;7.126;2023-01-28T07:05:05;1.60;99.90
33955;DHT22;20233;50.804;7.126;2023-01-28T07:07:32;1.70;99.90
33955;DHT22;20233;50.804;7.126;2023-01-28T07:09:58;1.60;99.90
33955;DHT22;20233;50.804;7.126;2023-01-28T07:12:24;1.70;99.90
33955;DHT22;20233;50.804;7.126;2023-01-28T07:14:50;1.70;99.90
33955;DHT22;20233;50.804;7.126;2023-01-28T07:17:16;1.70;99.90
33955;DHT22;20233;50.804;7.126;2023-01-28T07:19:42;1.80;99.90
33955;DHT22;20233;50.804;7.126;2023-01-28T07:22:08;1.80;99.90
33955;DHT22;20233;50.804;7.126;2023-01-28T07:24:34;1.90;99.90
33955;DHT22;20233;50.804;7.126;2023-01-28T07:27:00;2.00;99.90
33955;DHT22;20233;50.804;7.126;2023-01-28T07:29:26;2.00;99.90
33955;DHT22;20233;50.804;7.126;2023-01-28T07:31:53;1.90;99.90
33955;DHT22;20233;50.804;7.126;2023-01-28T07:34:19;2.00;99.90
33955;DHT22;20233;50.804;7.126;2023-01-28T07:36:45;2.00;99.90
33955;DHT22;20233;50.804;7.126;2023-01-28T07:39:12;1.90;99.90
33955;DHT22;20233;50.804;7.126;2023-01-28T07:41:38;1.90;99.90
33955;DHT22;20233;50.804;7.126;2023-01-28T07:44:04;1.80;99.90
33955;DHT22;20233;50.804;7.126;2023-01-28T07:46:31;1.80;99.90
33955;DHT22;20233;50.804;7.126;2023-01-28T07:48:59;1.70;99.90
33955;DHT22;20233;50.804;7.126;2023-01-28T07:51:25;1.80;99.90
33955;DHT22;20233;50.804;7.126;2023-01-28T07:53:51;1.80;99.90
33955;DHT22;20233;50.804;7.126;2023-01-28T07:56:18;1.80;99.90
33955;DHT22;20233;50.804;7.126;2023-01-28T07:58:44;1.80;99.90
33955;DHT22;20233;50.804;7.126;2023-01-28T08:01:10;1.90;99.90
33955;DHT22;20233;50.804;7.126;2023-01-28T08:03:36;2.00;99.90
33955;DHT22;20233;50.804;7.126;2023-01-28T08:06:02;2.10;99.90
33955;DHT22;20233;50.804;7.126;2023-01-28T08:08:29;2.30;99.90
33955;DHT22;20233;50.804;7.126;2023-01-28T08:10:55;2.50;99.90
33955;DHT22;20233;50.804;7.126;2023-01-28T08:13:22;2.60;99.90
33955;DHT22;20233;50.804;7.126;2023-01-28T08:15:48;2.70;99.90
33955;DHT22;20233;50.804;7.126;2023-01-28T08:18:16;2.70;99.90
33955;DHT22;20233;50.804;7.126;2023-01-28T08:20:42;2.80;99.90
33955;DHT22;20233;50.804;7.126;2023-01-28T08:23:17;2.70;99.90
33955;DHT22;20233;50.804;7.126;2023-01-28T08:25:44;2.80;99.90
33955;DHT22;20233;50.804;7.126;2023-01-28T08:28:11;2.80;99.90
33955;DHT22;20233;50.804;7.126;2023-01-28T08:30:37;2.80;99.90
33955;DHT22;20233;50.804;7.126;2023-01-28T08:33:05;2.60;99.90
33955;DHT22;20233;50.804;7.126;2023-01-28T08:35:32;2.60;99.90
33955;DHT22;20233;50.804;7.126;2023-01-28T08:37:59;2.50;99.90
33955;DHT22;20233;50.804;7.126;2023-01-28T08:40:26;2.50;99.90
33955;DHT22;20233;50.804;7.126;2023-01-28T08:42:54;2.60;99.90
33955;DHT22;20233;50.804;7.126;2023-01-28T08:45:23;2.60;99.90
33955;DHT22;20233;50.804;7.126;2023-01-28T08:48:03;2.60;99.90
33955;DHT22;20233;50.804;7.126;2023-01-28T08:50:32;2.80;99.90
33955;DHT22;20233;50.804;7.126;2023-01-28T08:53:01;2.80;99.90
33955;DHT22;20233;50.804;7.126;2023-01-28T08:55:29;2.70;99.90
33955;DHT22;20233;50.804;7.126;2023-01-28T08:57:56;2.80;99.90
33955;DHT22;20233;50.804;7.126;2023-01-28T09:00:22;2.70;99.90
33955;DHT22;20233;50.804;7.126;2023-01-28T09:02:52;2.70;99.90
33955;DHT22;20233;50.804;7.126;2023-01-28T09:05:20;2.60;99.90
33955;DHT22;20233;50.804;7.126;2023-01-28T09:07:46;2.40;99.90
33955;DHT22;20233;50.804;7.126;2023-01-28T09:10:12;2.30;99.90
33955;DHT22;20233;50.804;7.126;2023-01-28T09:12:39;2.30;99.90
33955;DHT22;20233;50.804;7.126;2023-01-28T09:15:05;2.40;99.90
33955;DHT22;20233;50.804;7.126;2023-01-28T09:17:32;2.50;99.90
33955;DHT22;20233;50.804;7.126;2023-01-28T09:19:58;2.40;99.90
33955;DHT22;20233;50.804;7.126;2023-01-28T09:22:24;2.10;99.90
33955;DHT22;20233;50.804;7.126;2023-01-28T09:24:51;2.10;99.90
33955;DHT22;20233;50.804;7.126;2023-01-28T09:27:18;2.10;99.90
33955;DHT22;20233;50.804;7.126;2023-01-28T09:29:43;2.10;99.90
33955;DHT22;20233;50.804;7.126;2023-01-28T09:32:09;2.10;99.90
33955;DHT22;20233;50.804;7.126;2023-01-28T09:34:36;2.10;99.90
33955;DHT22;20233;50.804;7.126;2023-01-28T09:37:02;2.10;99.90
33955;DHT22;20233;50.804;7.126;2023-01-28T09:39:28;2.00;99.90
33955;DHT22;20233;50.804;7.126;2023-01-28T09:42:22;2.00;99.90
33955;DHT22;20233;50.804;7.126;2023-01-28T09:45:16;1.90;99.90
33955;DHT22;20233;50.804;7.126;2023-01-28T09:47:49;2.00;99.90
33955;DHT22;20233;50.804;7.126;2023-01-28T09:50:38;1.90;99.90
33955;DHT22;20233;50.804;7.126;2023-01-28T09:53:11;2.00;99.90
33955;DHT22;20233;50.804;7.126;2023-01-28T09:55:40;2.00;99.90
33955;DHT22;20233;50.804;7.126;2023-01-28T09:58:14;2.00;99.90
33955;DHT22;20233;50.804;7.126;2023-01-28T10:15:21;2.00;99.90
33955;DHT22;20233;50.804;7.126;2023-01-28T10:17:53;2.00;99.90
33955;DHT22;20233;50.804;7.126;2023-01-28T10:20:45;2.00;99.90
33955;DHT22;20233;50.804;7.126;2023-01-28T10:23:25;2.10;99.90
33955;DHT22;20233;50.804;7.126;2023-01-28T10:25:54;2.00;99.90
33955;DHT22;20233;50.804;7.126;2023-01-28T10:28:26;2.00;99.90
33955;DHT22;20233;50.804;7.126;2023-01-28T10:30:53;2.10;99.90
33955;DHT22;20233;50.804;7.126;2023-01-28T10:33:37;2.10;99.90
33955;DHT22;20233;50.804;7.126;2023-01-28T10:36:05;2.00;99.90
33955;DHT22;20233;50.804;7.126;2023-01-28T10:38:32;2.10;99.90
33955;DHT22;20233;50.804;7.126;2023-01-28T10:41:02;2.10;99.90
33955;DHT22;20233;50.804;7.126;2023-01-28T10:43:34;2.10;99.90
33955;DHT22;20233;50.804;7.126;2023-01-28T10:46:21;2.10;99.90
33955;DHT22;20233;50.804;7.126;2023-01-28T10:51:30;2.00;99.90
33955;DHT22;20233;50.804;7.126;2023-01-28T10:53:57;1.90;99.90
33955;DHT22;20233;50.804;7.126;2023-01-28T10:56:29;2.00;99.90
33955;DHT22;20233;50.804;7.126;2023-01-28T10:59:03;2.10;99.90
33955;DHT22;20233;50.804;7.126;2023-01-28T11:01:52;2.00;99.90
33955;DHT22;20233;50.804;7.126;2023-01-28T11:04:28;2.10;99.90
33955;DHT22;20233;50.804;7.126;2023-01-28T11:07:04;2.10;99.90
33955;DHT22;20233;50.804;7.126;2023-01-28T11:09:33;2.30;99.90
33955;DHT22;20233;50.804;7.126;2023-01-28T11:12:11;2.30;99.90
33955;DHT22;20233;50.804;7.126;2023-01-28T11:14:52;2.40;99.90
33955;DHT22;20233;50.804;7.126;2023-01-28T11:17:20;2.20;99.90
33955;DHT22;20233;50.804;7.126;2023-01-28T11:19:50;2.10;99.90
33955;DHT22;20233;50.804;7.126;2023-01-28T11:22:37;2.00;99.90
33955;DHT22;20233;50.804;7.126;2023-01-28T11:27:49;2.30;99.90
33955;DHT22;20233;50.804;7.126;2023-01-28T11:30:22;2.30;99.90
33955;DHT22;20233;50.804;7.126;2023-01-28T11:32:55;2.20;99.90
33955;DHT22;20233;50.804;7.126;2023-01-28T11:35:29;2.40;99.90
33955;DHT22;20233;50.804;7.126;2023-01-28T11:38:00;2.30;99.90
33955;DHT22;20233;50.804;7.126;2023-01-28T11:40:27;2.30;99.90
33955;DHT22;20233;50.804;7.126;2023-01-28T11:42:54;2.40;99.90
33955;DHT22;20233;50.804;7.126;2023-01-28T11:56:18;2.30;99.90
33955;DHT22;20233;50.804;7.126;2023-01-28T11:59:16;2.30;99.90
33955;DHT22;20233;50.804;7.126;2023-01-28T12:07:24;2.20;99.90
33955;DHT22;20233;50.804;7.126;2023-01-28T12:21:05;2.30;99.90
33955;DHT22;20233;50.804;7.126;2023-01-28T12:23:56;2.40;99.90
33955;DHT22;20233;50.804;7.126;2023-01-28T12:31:59;2.30;99.90
33955;DHT22;20233;50.804;7.126;2023-01-28T12:40:32;2.40;99.90
33955;DHT22;20233;50.804;7.126;2023-01-28T12:43:10;2.30;99.90
33955;DHT22;20233;50.804;7.126;2023-01-28T12:45:44;2.50;99.90
33955;DHT22;20233;50.804;7.126;2023-01-28T12:48:24;2.40;99.90
33955;DHT22;20233;50.804;7.126;2023-01-28T12:51:23;2.40;99.90
33955;DHT22;20233;50.804;7.126;2023-01-28T12:53:59;2.20;99.90
33955;DHT22;20233;50.804;7.126;2023-01-28T12:56:36;2.30;99.90
33955;DHT22;20233;50.804;7.126;2023-01-28T12:59:18;2.20;99.90
33955;DHT22;20233;50.804;7.126;2023-01-28T13:07:23;2.30;99.90
33955;DHT22;20233;50.804;7.126;2023-01-28T13:10:35;2.40;99.90
33955;DHT22;20233;50.804;7.126;2023-01-28T13:12:42;2.30;99.90
33955;DHT22;20233;50.804;7.126;2023-01-28T13:15:15;2.40;99.90
33955;DHT22;20233;50.804;7.126;2023-01-28T13:18:00;2.40;99.90
33955;DHT22;20233;50.804;7.126;2023-01-28T13:20:48;2.60;99.90
33955;DHT22;20233;50.804;7.126;2023-01-28T13:28:49;2.40;99.90
33955;DHT22;20233;50.804;7.126;2023-01-28T13:31:21;2.60;99.90
33955;DHT22;20233;50.804;7.126;2023-01-28T13:36:32;2.70;99.90
33955;DHT22;20233;50.804;7.126;2023-01-28T13:39:16;2.30;99.90
33955;DHT22;20233;50.804;7.126;2023-01-28T13:44:38;2.50;99.90
33955;DHT22;20233;50.804;7.126;2023-01-28T13:47:14;2.60;99.90
33955;DHT22;20233;50.804;7.126;2023-01-28T13:49:54;2.60;99.90
33955;DHT22;20233;50.804;7.126;2023-01-28T13:52:26;2.90;99.90
33955;DHT22;20233;50.804;7.126;2023-01-28T14:09:03;3.50;99.90
33955;DHT22;20233;50.804;7.126;2023-01-28T14:20:06;2.90;99.90
33955;DHT22;20233;50.804;7.126;2023-01-28T14:22:40;2.60;99.90
33955;DHT22;20233;50.804;7.126;2023-01-28T14:25:13;2.60;99.90
33955;DHT22;20233;50.804;7.126;2023-01-28T14:27:44;2.70;99.90
33955;DHT22;20233;50.804;7.126;2023-01-28T14:32:59;2.80;99.90
33955;DHT22;20233;50.804;7.126;2023-01-28T14:35:32;3.00;99.90
33955;DHT22;20233;50.804;7.126;2023-01-28T14:38:00;3.20;99.90
33955;DHT22;20233;50.804;7.126;2023-01-28T14:40:32;3.30;99.90
33955;DHT22;20233;50.804;7.126;2023-01-28T14:43:00;3.20;99.90
33955;DHT22;20233;50.804;7.126;2023-01-28T14:45:55;3.10;99.90
33955;DHT22;20233;50.804;7.126;2023-01-28T14:48:46;3.10;99.90
33955;DHT22;20233;50.804;7.126;2023-01-28T14:59:27;3.00;99.90
33955;DHT22;20233;50.804;7.126;2023-01-28T15:01:57;3.20;99.90
33955;DHT22;20233;50.804;7.126;2023-01-28T15:04:32;3.20;99.90
33955;DHT22;20233;50.804;7.126;2023-01-28T15:07:23;2.80;99.90
33955;DHT22;20233;50.804;7.126;2023-01-28T15:12:26;3.00;99.90
33955;DHT22;20233;50.804;7.126;2023-01-28T15:14:53;3.10;99.90
33955;DHT22;20233;50.804;7.126;2023-01-28T15:17:26;3.30;99.90
33955;DHT22;20233;50.804;7.126;2023-01-28T15:19:55;3.40;99.90
33955;DHT22;20233;50.804;7.126;2023-01-28T15:22:27;3.60;99.90
33955;DHT22;20233;50.804;7.126;2023-01-28T15:24:54;3.30;99.90
33955;DHT22;20233;50.804;7.126;2023-01-28T15:27:27;3.50;99.90
33955;DHT22;20233;50.804;7.126;2023-01-28T15:29:59;3.60;99.90
33955;DHT22;20233;50.804;7.126;2023-01-28T15:32:29;3.60;99.90
33955;DHT22;20233;50.804;7.126;2023-01-28T15:34:57;3.50;99.90
33955;DHT22;20233;50.804;7.126;2023-01-28T15:37:24;3.60;99.90
33955;DHT22;20233;50.804;7.126;2023-01-28T15:40:02;3.60;99.90
33955;DHT22;20233;50.804;7.126;2023-01-28T15:42:30;3.60;99.90
33955;DHT22;20233;50.804;7.126;2023-01-28T15:44:57;3.70;99.90
33955;DHT22;20233;50.804;7.126;2023-01-28T15:47:29;3.50;99.90
33955;DHT22;20233;50.804;7.126;2023-01-28T15:49:59;3.50;99.90
33955;DHT22;20233;50.804;7.126;2023-01-28T15:52:38;3.50;99.90
33955;DHT22;20233;50.804;7.126;2023-01-28T15:55:05;3.40;99.90
33955;DHT22;20233;50.804;7.126;2023-01-28T15:57:33;3.40;99.90
33955;DHT22;20233;50.804;7.126;2023-01-28T16:00:19;3.40;99.90
33955;DHT22;20233;50.804;7.126;2023-01-28T16:02:51;3.30;99.90
33955;DHT22;20233;50.804;7.126;2023-01-28T16:05:29;3.20;99.90
33955;DHT22;20233;50.804;7.126;2023-01-28T16:07:57;2.90;99.90
33955;DHT22;20233;50.804;7.126;2023-01-28T16:10:28;2.80;99.90
33955;DHT22;20233;50.804;7.126;2023-01-28T16:13:20;2.80;99.90
33955;DHT22;20233;50.804;7.126;2023-01-28T16:15:50;2.60;99.90
33955;DHT22;20233;50.804;7.126;2023-01-28T16:18:44;2.60;99.90
33955;DHT22;20233;50.804;7.126;2023-01-28T16:21:23;2.80;99.90
33955;DHT22;20233;50.804;7.126;2023-01-28T16:23:58;2.80;99.90
33955;DHT22;20233;50.804;7.126;2023-01-28T16:26:26;2.90;99.90
33955;DHT22;20233;50.804;7.126;2023-01-28T16:28:53;2.90;99.90
33955;DHT22;20233;50.804;7.126;2023-01-28T16:31:20;2.90;99.90
33955;DHT22;20233;50.804;7.126;2023-01-28T16:33:47;2.90;99.90
33955;DHT22;20233;50.804;7.126;2023-01-28T16:36:16;2.80;99.90
33955;DHT22;20233;50.804;7.126;2023-01-28T16:38:44;2.70;99.90
33955;DHT22;20233;50.804;7.126;2023-01-28T16:41:27;2.50;99.90
33955;DHT22;20233;50.804;7.126;2023-01-28T16:43:54;2.30;99.90
33955;DHT22;20233;50.804;7.126;2023-01-28T16:46:20;2.50;99.90
33955;DHT22;20233;50.804;7.126;2023-01-28T16:48:46;2.20;99.90
33955;DHT22;20233;50.804;7.126;2023-01-28T16:51:16;1.70;99.90
33955;DHT22;20233;50.804;7.126;2023-01-28T16:53:45;1.70;99.90
33955;DHT22;20233;50.804;7.126;2023-01-28T16:56:20;1.50;99.90
33955;DHT22;20233;50.804;7.126;2023-01-28T16:58:46;1.30;99.90
33955;DHT22;20233;50.804;7.126;2023-01-28T17:01:12;1.30;99.90
33955;DHT22;20233;50.804;7.126;2023-01-28T17:03:38;1.30;99.90
33955;DHT22;20233;50.804;7.126;2023-01-28T17:06:06;1.20;99.90
33955;DHT22;20233;50.804;7.126;2023-01-28T17:08:32;1.20;99.90
33955;DHT22;20233;50.804;7.126;2023-01-28T17:10:58;1.30;99.90
33955;DHT22;20233;50.804;7.126;2023-01-28T17:13:25;1.10;99.90
33955;DHT22;20233;50.804;7.126;2023-01-28T17:15:51;1.10;99.90
33955;DHT22;20233;50.804;7.126;2023-01-28T17:18:18;1.10;99.90
33955;DHT22;20233;50.804;7.126;2023-01-28T17:20:45;1.10;99.90
33955;DHT22;20233;50.804;7.126;2023-01-28T17:23:14;1.10;99.90
33955;DHT22;20233;50.804;7.126;2023-01-28T17:25:42;1.30;99.90
33955;DHT22;20233;50.804;7.126;2023-01-28T17:28:09;1.30;99.90
33955;DHT22;20233;50.804;7.126;2023-01-28T17:30:38;1.10;99.90
33955;DHT22;20233;50.804;7.126;2023-01-28T17:33:05;1.00;99.90
33955;DHT22;20233;50.804;7.126;2023-01-28T17:35:31;1.10;99.90
33955;DHT22;20233;50.804;7.126;2023-01-28T17:38:00;1.30;99.90
33955;DHT22;20233;50.804;7.126;2023-01-28T17:40:27;1.50;99.90
33955;DHT22;20233;50.804;7.126;2023-01-28T17:42:54;1.60;99.90
33955;DHT22;20233;50.804;7.126;2023-01-28T17:45:22;1.60;99.90
33955;DHT22;20233;50.804;7.126;2023-01-28T17:47:49;1.60;99.90
33955;DHT22;20233;50.804;7.126;2023-01-28T17:50:15;1.60;99.90
33955;DHT22;20233;50.804;7.126;2023-01-28T17:52:41;1.60;99.90
33955;DHT22;20233;50.804;7.126;2023-01-28T17:55:07;1.50;99.90
33955;DHT22;20233;50.804;7.126;2023-01-28T17:57:35;1.50;99.90
33955;DHT22;20233;50.804;7.126;2023-01-28T18:00:01;1.40;99.90
33955;DHT22;20233;50.804;7.126;2023-01-28T18:02:27;1.40;99.90
33955;DHT22;20233;50.804;7.126;2023-01-28T18:04:54;1.30;99.90
33955;DHT22;20233;50.804;7.126;2023-01-28T18:07:20;1.30;99.90
33955;DHT22;20233;50.804;7.126;2023-01-28T18:09:46;1.30;99.90
33955;DHT22;20233;50.804;7.126;2023-01-28T18:12:14;1.20;99.90
33955;DHT22;20233;50.804;7.126;2023-01-28T18:14:40;1.20;99.90
33955;DHT22;20233;50.804;7.126;2023-01-28T18:17:07;1.20;99.90
33955;DHT22;20233;50.804;7.126;2023-01-28T18:19:33;1.10;99.90
33955;DHT22;20233;50.804;7.126;2023-01-28T18:22:00;1.10;99.90